Terminal Aerodrome Forecast
Issued by NWS Sterling, VA

Current Version | Previous Version | Text Only | Print | Product List | Glossary Off
Versions: 1 2 3 4 5 6 7 8 9 10 11 12 13 14 15 16 17 18 19 20 21

000
FTUS41 KLWX 301100
TAFMRB
TAF
KMRB 301127Z 3012/3112 31012KT P6SM BKN080
     FM301400 31013G22KT P6SM SCT020 BKN040
     FM301900 31023G32KT P6SM SCT040
     FM310400 31015G21KT P6SM FEW250
     FM310800 31011KT P6SM FEW250=

USA.gov is the U.S. government's official web portal to all federal, state and local government web resources and services.